createdAt,value
2022-09-10T00:04:31.461Z,100822.25
2022-09-10T00:09:28.589Z,100810.19
2022-09-10T00:14:28.869Z,100877.75
2022-09-10T00:19:30.738Z,100859.13
2022-09-10T00:24:28.619Z,100869.75
2022-09-10T00:29:31.329Z,100811.50
2022-09-10T00:34:28.387Z,100796.59
2022-09-10T00:39:27.214Z,100802.28
2022-09-10T00:44:59.716Z,100863.56
2022-09-10T00:50:02.503Z,100762.97
2022-09-10T00:55:00.054Z,100807.09
2022-09-10T01:00:11.974Z,100778.56
2022-09-10T01:05:11.155Z,100780.25
2022-09-10T01:10:13.385Z,100808.31
2022-09-10T01:15:24.901Z,100819.88
2022-09-10T01:20:52.069Z,100817.88
2022-09-10T01:26:04.071Z,100827.09
2022-09-10T01:31:14.728Z,100783.31
2022-09-10T01:36:16.598Z,100773.75
2022-09-10T01:41:14.199Z,100843.41
2022-09-10T01:46:29.422Z,100819.22
2022-09-10T01:51:44.202Z,100849.63
2022-09-10T01:56:50.144Z,100779.44
2022-09-10T02:01:55.555Z,100839.94
2022-09-10T02:06:56.255Z,100791.41
2022-09-10T02:11:54.646Z,100776.31
2022-09-10T02:17:25.695Z,100768.09
2022-09-10T02:22:29.108Z,100782.53
2022-09-10T02:27:29.587Z,100767.25
2022-09-10T02:32:28.359Z,100776.47
2022-09-10T02:37:25.519Z,100821.47
2022-09-10T02:42:34.587Z,100795.44
2022-09-10T02:47:36.498Z,100786.56
2022-09-10T02:52:34.123Z,100767.56
2022-09-10T02:57:31.653Z,100773.44
2022-09-10T03:02:28.916Z,100760.19
2022-09-10T03:07:26.839Z,100773.13
2022-09-10T03:12:24.373Z,100771.25
2022-09-10T03:17:22.873Z,100831.56
2022-09-10T03:22:20.122Z,100822.66
2022-09-10T03:27:22.231Z,100830.03
2022-09-10T03:32:23.607Z,100784.50
2022-09-10T03:37:24.933Z,100828.72
2022-09-10T03:42:23.401Z,100841.31
2022-09-10T03:47:21.226Z,100782.50
2022-09-10T03:52:22.512Z,100767.75
2022-09-10T03:57:21.699Z,100838.44
2022-09-10T04:02:24.447Z,100784.34
2022-09-10T04:07:26.586Z,100852.06
2022-09-10T04:12:28.282Z,100827.88
2022-09-10T04:17:29.955Z,100834.91
2022-09-10T04:22:28.654Z,100790.38
2022-09-10T04:27:28.125Z,100783.66
2022-09-10T04:32:28.676Z,100850.25
2022-09-10T04:37:27.518Z,100777.19
2022-09-10T04:42:25.439Z,100758.66
2022-09-10T04:47:29.858Z,100818.00
2022-09-10T04:52:37.476Z,100757.50
2022-09-10T04:57:55.624Z,100833.44
2022-09-10T05:03:02.976Z,100820.38
2022-09-10T05:13:33.920Z,100810.47
2022-09-10T05:18:45.231Z,100846.13
2022-09-10T05:23:43.760Z,100835.00
2022-09-10T05:28:43.035Z,100788.03
2022-09-10T05:33:44.554Z,100772.69
2022-09-10T05:48:54.559Z,100839.75
2022-09-10T05:53:54.737Z,100787.06
2022-09-10T05:58:53.920Z,100786.69
2022-09-10T06:03:58.461Z,100806.00
2022-09-10T06:08:58.955Z,100759.78
2022-09-10T06:14:50.984Z,100779.13
2022-09-10T06:20:09.029Z,100810.06
2022-09-10T06:25:14.194Z,100828.50
2022-09-10T06:30:14.314Z,100828.16
2022-09-10T06:35:32.444Z,100724.53
2022-09-10T06:41:00.287Z,100763.84
2022-09-10T06:46:32.336Z,100836.28
2022-09-10T06:51:39.864Z,100782.66
2022-09-10T06:56:42.921Z,100825.56
2022-09-10T07:01:48.132Z,100821.41
2022-09-10T07:06:48.263Z,100823.44
2022-09-10T07:11:54.662Z,100798.50
2022-09-10T07:16:53.004Z,100820.13
2022-09-10T14:16:27.201Z,100503.59
2022-09-10T14:21:49.644Z,100412.50
2022-09-10T14:27:15.604Z,100442.00
2022-09-10T14:32:27.890Z,100475.13
2022-09-10T14:37:47.799Z,100436.09
2022-09-10T14:42:48.209Z,100453.31
2022-09-10T14:48:00.155Z,100463.84
2022-09-10T14:52:57.829Z,100432.28
2022-09-10T14:57:58.097Z,100464.75
2022-09-10T15:03:04.450Z,100424.94
2022-09-10T15:08:18.321Z,100398.28
2022-09-10T15:13:27.963Z,100484.84
2022-09-10T15:25:08.131Z,100489.47
2022-09-10T15:30:11.299Z,100492.41
2022-09-10T15:35:30.801Z,100492.03
2022-09-10T15:40:30.818Z,100440.34
2022-09-10T15:45:38.827Z,100489.56
2022-09-10T15:50:56.992Z,100509.94
2022-09-10T15:55:57.843Z,100502.00
2022-09-10T16:00:55.831Z,100439.25
2022-09-10T16:05:53.891Z,100439.97
2022-09-10T16:10:54.950Z,100420.94
2022-09-10T16:16:02.866Z,100487.91
2022-09-10T16:21:23.308Z,100456.88
2022-09-10T16:26:33.789Z,100529.13
2022-09-10T16:31:46.831Z,100517.09
2022-09-10T16:37:25.175Z,100482.75
2022-09-10T16:42:37.482Z,100549.72
2022-09-10T16:48:04.731Z,100497.06
2022-09-10T16:53:23.511Z,100505.16
2022-09-10T16:58:35.799Z,100519.56
2022-09-10T17:04:16.775Z,100540.31
2022-09-10T17:09:29.187Z,100561.19
2022-09-10T17:14:32.161Z,100627.94
2022-09-10T17:19:42.302Z,100642.09
2022-09-10T17:24:41.233Z,100661.31
2022-09-10T17:29:51.792Z,100691.13
2022-09-10T17:35:50.078Z,100669.41
2022-09-10T17:41:57.780Z,100718.69
2022-09-10T17:48:28.235Z,100705.25
2022-09-10T17:54:14.620Z,100626.22
2022-09-10T17:59:38.372Z,100648.38
2022-09-10T18:04:41.721Z,100687.97
2022-09-10T18:10:19.352Z,100736.50
2022-09-10T18:15:34.635Z,100706.53
2022-09-10T18:27:33.276Z,100698.13
2022-09-10T18:51:47.432Z,100713.75
2022-09-10T18:57:53.514Z,100677.13
2022-09-10T19:04:06.051Z,100743.06
2022-09-10T19:10:46.709Z,100729.75
2022-09-10T20:18:32.112Z,100639.25
2022-09-10T20:23:53.270Z,100729.56
2022-09-10T20:29:31.229Z,100651.84
2022-09-10T20:34:37.877Z,100657.34
2022-09-10T20:40:34.608Z,100641.22
2022-09-10T20:46:07.643Z,100656.16
2022-09-10T20:52:12.273Z,100650.28
2022-09-10T20:57:22.863Z,100696.75
2022-09-10T21:15:01.181Z,100661.81
2022-09-10T21:32:48.935Z,100675.91
2022-09-10T21:38:12.364Z,100642.03
2022-09-10T21:43:43.565Z,100658.84
2022-09-10T21:48:56.994Z,100675.66
2022-09-10T21:54:33.310Z,100651.34
2022-09-10T21:59:55.049Z,100725.66
2022-09-10T22:05:06.424Z,100717.31
2022-09-10T22:10:08.913Z,100660.44
2022-09-10T22:15:23.725Z,100740.81
2022-09-10T22:20:25.272Z,100749.91
2022-09-10T22:25:24.786Z,100764.00
2022-09-10T22:30:25.050Z,100792.59
2022-09-10T22:35:31.103Z,100707.13
2022-09-10T22:40:55.220Z,100759.16
2022-09-10T22:46:08.722Z,100784.00
2022-09-10T22:51:27.219Z,100784.00
2022-09-10T22:56:41.397Z,100747.25
2022-09-10T23:01:54.901Z,100741.50
2022-09-10T23:07:15.046Z,100773.59
2022-09-10T23:12:14.776Z,100738.00
2022-09-10T23:17:22.316Z,100685.44
2022-09-10T23:22:29.703Z,100732.63
2022-09-10T23:27:42.228Z,100650.38
2022-09-10T23:32:58.108Z,100661.63
2022-09-10T23:38:09.901Z,100666.00
2022-09-10T23:43:22.178Z,100675.72
2022-09-10T23:48:19.195Z,100678.56
2022-09-10T23:53:19.668Z,100636.25
2022-09-10T23:58:24.580Z,100723.50
